Lathom, Alberta

Past 24 Hour Conditions

This table is a summary of hourly weather conditions for the past 24 hours. This summary includes the following parameters: temperature, humidity, dew point, wind speed and direction, air pressure, visibility and/or wind chill and humidex.
Date / Time
(MDT)
Conditions Temp (°F) Humidity (%) Dew Point (°F) Wind (mph) Pressure (inches) Vis (mi) Wind Chill
19 April 2014
10:00 N/A 40 83 35 6 N/A N/A *
9:00 N/A 37 84 33 5 N/A N/A *
8:00 N/A 32 90 30 3 N/A N/A *
7:00 N/A 26 94 24 3 N/A N/A 23
6:00 N/A 25   94 24 3 N/A N/A 22
5:00 N/A 26 94 24 2 N/A N/A 23
4:00 N/A 25   94 24 calm N/A N/A 24
3:00 N/A 29 94 27 7 N/A N/A 22
2:00 N/A 31 92 29 10 N/A N/A 23
1:00 N/A 33 92 31 10 N/A N/A *
00:00 N/A 33 92 31 12 N/A N/A *
18 April 2014
23:00 N/A 33 94 32 11 N/A N/A *
22:00 N/A 33 96 32 17 N/A N/A *
21:00 N/A 34 91 32 18 N/A N/A *
20:00 N/A 35 89 33 16 N/A N/A *
19:00 N/A 36 92 34 18 N/A N/A *
18:00 N/A 37 91 35 18 N/A N/A *
17:00 N/A 43 73 35 14 N/A N/A *
16:00 N/A 47 67 36 15 N/A N/A *
15:00 N/A 49 57 35 13 N/A N/A *
14:00 N/A 50   56 35 10 N/A N/A *
13:00 N/A 50   58 35 7 N/A N/A *
12:00 N/A 47 64 36 7 N/A N/A *
11:00 N/A 45 75 37 11 N/A N/A *
10:00 N/A 40 94 38 5 N/A N/A *
N/A
Not available
 ↑ 
Highest temperature
 ↓ 
Lowest temperature
*
Value not significant.

If you require additional historical weather information, please visit Climate Data Online.